Amunt
Inicio > meteoXarxa
Fes-te'n soci

METEOXARXA

Vistabella del Maestrat
Ubicació Sant Joan de Penyagolosa
Comarca l′Alcalatén
Altitud (msnm) 1285
Posició geogràfica 40° 15' 4.00" N, 00° 21' 21.00" W
Model Davis Vantage Pro2 calefactada
Presa de dades
Font de les dades AVAMET
Estadístiques. Resum
Data Temperatura (ºC) Humitat (%) Pressió (hPa) Vent (km/h) Precipit. (mm)
Mínima Mitjana Màxima Mínima Mitjana Màxima Mínima Mitjana Màxima Predom. Mitjana Ràfega màxima Total Dies de pluja
Mínima Mitjana Màxima Mínima Mitjana Màxima
Últimes dades diàries
25-03-2017 -0,5     3,6     7,3 WSW 10,3 35,4 0,0  
24-03-2017 -5,1     -0,2     3,9 E 2,9 25,7 2,8  
23-03-2017 -2,8     1,9     6,8 E 7,2 33,8 0,6  
22-03-2017 -0,7     5,1     10,4 WSW 6,9 37,0 0,0  
21-03-2017 2,3     8,3     14,5 WNW 5,6 24,1 0,0  
20-03-2017 1,7     8,4     15,4 SW 5,0 27,4 0,0  
19-03-2017 2,0     8,8     16,9 SW 6,0 27,4 0,0  
18-03-2017 -3,3     6,5     16,4 SW 4,2 24,1 0,0  
17-03-2017 -2,0     4,5     12,7 E 4,7 24,1 0,0  
16-03-2017 -2,7     4,5     11,7 W 4,0 30,6 0,0  
15-03-2017 -0,5     4,8     10,2 E 5,3 30,6 0,0  
14-03-2017 1,1     5,4     10,7 E 11,7 54,7 0,0  
13-03-2017 0,1     1,6     3,7 E 11,6 56,3 39,6  
12-03-2017 0,5     8,8     14,7 NW 7,7 30,6 12,6  
11-03-2017 5,0     12,6     20,3 WSW 5,0 35,4 0,0  
10-03-2017 7,2     16,4     22,9 W 6,8 30,6 0,0  
09-03-2017 4,7     13,3     22,4 WSW 5,5 29,0 0,0  
08-03-2017 6,3     11,4     18,2 W 7,7 40,2 0,0  
07-03-2017 4,6     10,0     14,7 W 10,8 43,5 0,0  
06-03-2017 5,7     9,4     13,3 WSW 10,0 41,8 0,0  
05-03-2017 -2,0     6,2     12,1 WSW 10,3 43,5 0,0  
04-03-2017 -1,5     1,3     5,3 WSW 14,5 54,7 0,0  
03-03-2017 0,2     5,9     10,7 WSW 11,1 53,1 12,4  
02-03-2017 -1,0     6,3     12,8 WSW 6,6 30,6 0,0  
01-03-2017 0,7     6,7     11,1 WSW 7,7 33,8 0,0  
28-02-2017 0,9     6,2     10,8 WSW 10,9 49,9 0,0  
27-02-2017 -1,2     5,3     13,6 WSW 4,8 25,7 0,0  
26-02-2017 -1,1     5,4     11,7 WSW 6,4 22,5 0,0  
25-02-2017 -3,4     2,8     11,3 SW 4,5 22,5 0,0  
24-02-2017 -0,7     5,3     9,4 E 4,2 29,0 3,2  
23-02-2017 3,2     9,8     13,5 WSW 6,4 30,6 0,2  
22-02-2017 -0,6     6,3     14,6 WSW 5,6 20,9 0,0  
Dades del mes en curs (actualitzades fins l'últim dia disponible)
03/2017 -5,1 0,8 7,2 6,9 3,7 12,8 22,9   7,6 56,3 68,0  
Últimes dades mensuals
02/2017 -4,3 -0,7 6,1 4,1 3,5 9,1 14,6 8,9 88,5 21,6 6
01/2017 -13,8 -2,9 2,8 1,4 -2,3 5,9 15,2 7,5 72,4 37,6 10
12/2016 -6,2 -0,8 5,7 3,1 1,2 8,7 16,3 5,4 67,6 184,0 22
11/2016 -5,2 1,0 7,3 5,4 3,8 10,1 19,1 6,8 59,5 171,6 12
10/2016 2,2 6,6 10,7 11,2 9,7 16,7 22,3 4,9 41,8 41,4 23
09/2016 2,5 9,4 16,5 14,9 13,8 20,9 31,7 5,6 49,9 50,2 14
08/2016 6,2 11,0 16,4 17,8 17,6 24,2 29,2 5,8 37,0 28,0 13
07/2016 1,7 11,9 18,3 18,7 18,6 25,1 30,0 6,1 59,5 30,8 9
06/2016 2,4 8,9 15,8 15,5 15,2 21,7 27,7 6,3 45,1 46,8 9
05/2016 -4,6 4,4 9,6 10,2 8,0 15,4 21,4 7,0 53,1 81,4 13
04/2016 -3,6 1,7 5,3 6,7 5,2 11,6 16,6 7,6 59,5 53,8 13
03/2016 -7,2 -0,2 6,7 4,4 2,4 8,9 17,9 8,2 57,9 26,4 10
02/2016 -9,6 -0,8 8,9 4,0 0,4 9,1 15,2 9,7 85,3 19,0 9
Dades de l'any en curs (actualitzades fins l'últim dia disponible)
2017 -13,8 -1,1 7,2 3,9 -2,3 9,0 22,9   8,0 88,5 127,2  
Últimes dades anuals
2016 -9,6 4,5 18,3 9,7 0,4 15,2 31,7 6,9 85,3 736,4 157